Terminal Aerodrome Forecast
Issued by NWS Sterling, VA

Current Version | Previous Version | Graphics & Text | Print | Product List | Glossary On
Versions: 1 2 3 4 5 6 7 8 9 10 11 12 13 14 15 16 17 18 19 20 21 22 23 24 25
000
FTUS41 KLWX 101700
TAFIAD
TAF
KIAD 101734Z 1018/1124 VRB03KT P6SM VCTS BKN050CB BKN130
     FM102200 12004KT 6SM -TSRA OVC050CB
     FM110200 VRB03KT P6SM VCTS BKN050CB BKN130
     FM110600 VRB03KT 5SM BR SCT050
     FM111300 05005KT P6SM SCT050=

USA.gov is the U.S. government's official web portal to all federal, state and local government web resources and services.